Latest Weather Observations for Christmas Creek

IDW60801

Issued at 1:13 pm WST Wednesday 19 December 2018 (issued every 10 minutes, with the page automatically refreshed every 10 minutes)

About weather observations | Map of weather stations | Latest weather observations for WA | Other Formats
Station Details ID: 505049 Name: CHRISTMAS CREEK Lat: -22.36 Lon: 119.65 Height: 437.21 m
Data from the previous 72 hours. | See also: Recent months for locations in Western Australia
Date/Time
WST
Temp
°C
App
Temp
°C
Dew
Point
°C
Rel
Hum
%
Delta-T
°C
Wind Press
QNH
hPa
Press
MSL
hPa
Rain since
9am
mm
Dir  Spd
km/h
Gust
km/h
Spd
kts
Gust
kts
19/01:00pm 36.9 33.7 7.0 16 17.0 ENE 13 26 7 14 1010.9 1007.2 0.0
19/12:30pm 37.6 33.2 7.5 16 17.3 E 20 37 11 20 1011.1 1007.5 0.0
19/12:00pm 37.2 34.1 7.2 16 17.1 ENE 13 33 7 18 1011.4 1007.8 0.0
19/11:30am 35.9 31.4 7.0 17 16.3 E 20 33 11 18 1011.8 1008.2 0.0
19/11:00am 35.9 31.6 7.9 18 16.0 ENE 20 35 11 19 1011.8 1008.2 0.0
19/10:30am 34.9 30.6 7.9 19 15.4 E 20 30 11 16 1012.2 1008.6 0.0
19/10:00am 33.9 29.4 8.5 21 14.6 E 22 35 12 19 1012.3 1008.7 0.0
19/09:30am 33.3 28.3 8.0 21 14.3 E 24 35 13 19 1012.6 1009.0 0.0
19/09:00am 32.3 27.8 8.5 23 13.5 E 22 37 12 20 1012.9 1009.3 0.0
19/08:30am 31.3 26.7 8.3 24 13.0 ESE 22 35 12 19 1013.0 1009.5 0.0
19/08:00am 30.6 25.3 8.3 25 12.5 ESE 26 37 14 20 1012.9 1009.3 0.0
19/07:30am 29.4 25.1 7.9 26 11.9 E 20 35 11 19 1012.6 1009.0 0.0
19/07:00am 28.1 23.2 6.8 26 11.5 ESE 22 32 12 17 1012.5 1008.9 0.0
19/06:30am 26.6 23.6 6.1 27 10.9 SE 11 17 6 9 1012.4 1008.8 0.0
19/06:00am 23.8 21.8 6.1 32 9.2 SSE 6 9 3 5 1012.0 1008.4 0.0
19/05:30am 21.6 19.7 7.4 40 7.5 S 7 9 4 5 1011.7 1008.1 0.0
19/05:27am 21.3 19.4 7.5 41 7.3 S 7 9 4 5 1011.7 1008.1 0.0
19/05:01am 21.6 20.0 8.1 42 7.2 SW 6 7 3 4 1011.2 1007.6 0.0
19/05:00am 21.7 20.5 8.2 42 7.2 SW 4 7 2 4 1011.2 1007.6 0.0
19/04:30am 22.6 21.5 8.3 40 7.7 SSW 4 7 2 4 1010.9 1007.2 0.0
19/04:00am 22.8 21.7 8.5 40 7.8 SSE 4 9 2 5 1010.5 1006.9 0.0
19/03:30am 23.4 22.4 9.0 40 7.9 ESE 4 6 2 3 1010.5 1006.9 0.0
19/03:00am 23.3 22.2 8.6 39 8.0 SSE 4 6 2 3 1010.4 1006.8 0.0
19/02:46am 23.8 23.1 8.6 38 8.3 ENE 2 2 1 1 1010.5 1006.9 0.0
19/02:36am 24.1 23.9 8.9 38 8.4 CALM 0 2 0 1 1010.5 1006.9 0.0
19/02:30am 24.6 24.0 9.0 37 8.6 N 2 4 1 2 1010.5 1006.9 0.0
19/02:00am 26.1 25.1 9.0 34 9.5 NNW 4 6 2 3 1010.7 1007.1 0.0
19/01:30am 27.1 25.6 9.0 32 10.1 NNE 7 13 4 7 1011.0 1007.4 0.0
19/01:00am 27.6 26.7 9.4 32 10.3 NNE 4 7 2 4 1011.3 1007.7 0.0
19/12:30am 28.1 25.8 8.9 30 10.8 NW 11 19 6 10 1011.1 1007.5 0.0
19/12:00am 29.8 25.6 8.2 26 12.1 NNW 20 32 11 17 1010.7 1007.1 0.0
 
Date/Time
WST
Temp
°C
App
Temp
°C
Dew
Point
°C
Rel
Hum
%
Delta-T
°C
Wind Press
QNH
hPa
Press
MSL
hPa
Rain since
9am
mm
Dir  Spd
km/h
Gust
km/h
Spd
kts
Gust
kts
18/11:30pm 28.5 26.0 4.7 22 12.5 E 7 15 4 8 1010.5 1006.9 0.0
18/11:00pm 28.4 26.4 4.6 22 12.4 ESE 4 6 2 3 1010.6 1007.0 0.0
18/10:30pm 29.7 27.3 4.4 20 13.3 E 6 9 3 5 1010.9 1007.2 0.0
18/10:00pm 29.9 27.9 4.5 20 13.4 ESE 4 6 2 3 1011.0 1007.4 0.0
18/09:30pm 30.3 28.2 4.1 19 13.7 SSE 4 6 2 3 1010.9 1007.2 0.0
18/09:00pm 30.2 27.6 4.0 19 13.7 SSE 7 11 4 6 1010.6 1007.0 0.0
18/08:30pm 32.6 30.2 4.4 17 15.0 SE 6 7 3 4 1010.4 1006.8 0.0
18/08:00pm 32.6 30.6 4.4 17 15.1 SSE 4 7 2 4 1010.1 1006.5 0.0
18/07:30pm 33.6 30.6 4.3 16 15.7 SSE 9 11 5 6 1009.8 1006.2 0.0
18/07:00pm 34.5 31.9 4.1 15 16.3 SSE 7 13 4 7 1009.5 1005.9 0.0
18/06:30pm 35.3 32.6 3.8 14 16.9 W 7 11 4 6 1009.2 1005.6 0.0
18/06:00pm 36.1 32.9 3.3 13 17.5 SSE 9 19 5 10 1008.9 1005.3 0.0
18/05:30pm 36.6 33.5 3.7 13 17.7 S 9 32 5 17 1008.7 1005.0 0.0
18/05:00pm 36.2 32.7 3.4 13 17.6 SE 11 17 6 9 1008.6 1004.9 0.0
18/04:30pm 37.1 34.1 4.1 13 17.9 SSE 9 26 5 14 1008.3 1004.7 0.0
18/04:00pm 36.5 34.0 4.7 14 17.4 SSW 7 17 4 9 1008.3 1004.7 0.0
18/03:30pm 36.4 33.9 4.6 14 17.4 SSE 7 15 4 8 1008.6 1004.9 0.0
18/03:00pm 36.3 33.4 4.6 14 17.3 ESE 9 19 5 10 1008.9 1005.3 0.0
18/02:30pm 35.9 32.2 4.2 14 17.1 SW 13 28 7 15 1009.2 1005.6 0.0
18/02:00pm 35.9 32.9 4.2 14 17.2 W 9 19 5 10 1009.6 1006.0 0.0
18/01:30pm 35.7 32.3 4.1 14 17.0 S 11 24 6 13 1009.9 1006.3 0.0
18/01:00pm 35.3 32.4 4.8 15 16.6 SSE 9 20 5 11 1010.2 1006.6 0.0
18/12:30pm 33.7 30.7 6.1 18 15.2 ESE 11 24 6 13 1010.5 1006.9 0.0
18/12:00pm 34.2 29.6 5.7 17 15.7 SSE 19 28 10 15 1010.9 1007.2 0.0
18/11:30am 32.4 30.1 5.8 19 14.5 SSW 7 26 4 14 1011.2 1007.6 0.0
18/11:00am 32.2 28.8 5.7 19 14.4 S 13 32 7 17 1011.6 1008.0 0.0
18/10:30am 32.5 29.3 6.7 20 14.3 S 13 28 7 15 1011.8 1008.2 0.0
18/10:00am 31.3 28.5 7.1 22 13.4 SSE 11 30 6 16 1011.9 1008.3 0.0
18/09:30am 30.3 27.1 6.9 23 12.8 SSE 13 26 7 14 1012.0 1008.4 0.0
18/09:00am 30.1 26.4 7.9 25 12.4 SE 17 28 9 15 1012.1 1008.5 0.0
18/08:30am 29.3 25.1 8.4 27 11.7 SE 20 28 11 15 1012.1 1008.5 0.0
18/08:00am 28.4 24.3 8.7 29 11.0 SE 20 35 11 19 1012.1 1008.5 0.0
18/07:30am 27.1 22.5 8.0 30 10.5 SE 22 30 12 16 1011.9 1008.3 0.0
18/07:00am 26.5 22.5 6.5 28 10.7 S 17 26 9 14 1011.7 1008.1 0.0
18/06:30am 24.2 21.9 5.5 30 9.7 SSW 7 13 4 7 1011.2 1007.6 0.0
18/06:00am 22.7 21.3 5.6 33 8.8 WSW 2 6 1 3 1010.7 1007.1 0.0
18/05:30am 21.2 19.9 5.9 37 7.8 W 2 4 1 2 1010.2 1006.6 0.0
18/05:25am 20.9 19.6 6.1 38 7.6 ENE 2 2 1 1 1010.1 1006.5 0.0
18/05:02am 20.6 18.4 5.4 37 7.7 SW 6 7 3 4 1009.7 1006.1 0.0
18/05:00am 20.8 18.7 5.6 37 7.7 SW 6 7 3 4 1009.7 1006.1 0.0
18/04:30am 21.5 19.2 5.8 36 8.0 WSW 7 9 4 5 1009.4 1005.8 0.0
18/04:00am 21.4 19.2 6.1 37 7.9 W 7 7 4 4 1009.2 1005.6 0.0
18/03:30am 21.6 19.9 5.9 36 8.1 NNW 4 6 2 3 1009.2 1005.6 0.0
18/03:00am 22.6 21.0 6.4 35 8.5 NNW 4 6 2 3 1009.0 1005.4 0.0
18/02:30am 22.8 21.5 6.1 34 8.7 NE 2 6 1 3 1008.9 1005.3 0.0
18/02:00am 22.9 20.8 5.8 33 8.8 SSE 6 9 3 5 1008.8 1005.1 0.0
18/01:30am 23.7 22.0 6.0 32 9.2 SE 4 6 2 3 1009.0 1005.4 0.0
18/01:00am 24.1 22.4 5.9 31 9.5 S 4 6 2 3 1009.2 1005.6 0.0
18/12:30am 24.7 22.6 6.0 30 9.8 S 6 9 3 5 1009.4 1005.8 0.0
18/12:00am 25.7 23.0 5.8 28 10.5 SSE 9 13 5 7 1009.6 1006.0 0.0
 
Date/Time
WST
Temp
°C
App
Temp
°C
Dew
Point
°C
Rel
Hum
%
Delta-T
°C
Wind Press
QNH
hPa
Press
MSL
hPa
Rain since
9am
mm
Dir  Spd
km/h
Gust
km/h
Spd
kts
Gust
kts
17/11:30pm 26.4 24.1 5.9 27 10.8 S 7 13 4 7 1009.8 1006.2 0.0
17/11:00pm 26.3 23.6 5.8 27 10.8 S 9 15 5 8 1010.0 1006.4 0.0
17/10:30pm 26.6 23.5 5.5 26 11.1 S 11 19 6 10 1010.1 1006.5 0.0
17/10:00pm 26.9 23.7 5.2 25 11.4 SSE 11 15 6 8 1010.1 1006.5 0.0
17/09:30pm 27.4 24.2 5.1 24 11.7 SSE 11 19 6 10 1009.9 1006.3 0.0
17/09:00pm 28.1 25.4 5.6 24 12.0 S 9 15 5 8 1009.7 1006.1 0.0
17/08:30pm 28.8 25.7 5.6 23 12.4 S 11 17 6 9 1009.4 1005.8 0.0
17/08:00pm 29.3 26.6 5.4 22 12.7 S 9 17 5 9 1009.1 1005.5 0.0
17/07:30pm 29.9 26.7 5.2 21 13.1 S 11 17 6 9 1008.6 1004.9 0.0
17/07:00pm 30.4 27.3 5.6 21 13.4 SSW 11 17 6 9 1008.0 1004.4 0.0
17/06:30pm 31.0 27.9 5.4 20 13.8 SSW 11 17 6 9 1007.7 1004.1 0.0
17/06:00pm 31.6 28.2 5.9 20 14.0 S 13 22 7 12 1007.3 1003.7 0.0
17/05:30pm 32.3 28.5 5.7 19 14.5 SSW 15 28 8 15 1007.0 1003.4 0.0
17/05:00pm 32.4 28.1 5.1 18 14.7 SSW 17 33 9 18 1006.8 1003.2 0.0
17/04:30pm 32.4 27.5 5.1 18 14.7 SW 20 35 11 19 1006.7 1003.0 0.0
17/04:00pm 32.6 27.8 4.4 17 15.1 SSW 19 32 10 17 1006.6 1002.9 0.0
17/03:30pm 33.3 28.8 4.1 16 15.6 SSW 17 32 9 17 1006.7 1003.0 0.0
17/03:00pm 32.0 28.2 3.9 17 14.9 SSW 13 32 7 17 1006.7 1003.0 0.0
17/02:30pm 32.0 27.4 3.9 17 14.8 SW 17 37 9 20 1007.0 1003.4 0.0
17/02:00pm 32.5 28.8 4.3 17 15.0 SSW 13 37 7 20 1007.3 1003.7 0.0
17/01:30pm 31.7 26.7 3.7 17 14.7 S 19 33 10 18 1007.7 1004.1 0.0
17/01:00pm 31.4 26.7 3.4 17 14.6 S 17 37 9 20 1008.0 1004.4 0.0
17/12:30pm 31.3 26.6 3.4 17 14.5 SSW 17 32 9 17 1008.5 1004.8 0.0
17/12:00pm 31.4 26.1 1.7 15 15.1 SW 19 30 10 16 1008.6 1004.9 0.0
17/11:30am 30.4 25.1 1.8 16 14.4 SSW 19 32 10 17 1008.9 1005.3 0.0
17/11:00am 28.8 23.7 2.9 19 13.2 SW 19 30 10 16 1009.3 1005.7 0.0
17/10:30am 28.3 24.2 4.6 22 12.4 WSW 15 28 8 15 1009.6 1006.0 0.0
17/10:00am 27.5 23.9 5.1 24 11.8 S 13 24 7 13 1009.9 1006.3 0.0
17/09:30am 26.4 22.1 5.4 26 11.0 SSW 17 26 9 14 1010.3 1006.7 0.0
17/09:00am 25.3 20.6 5.0 27 10.5 SSW 19 30 10 16 1010.4 1006.8 0.0
17/08:30am 24.7 19.8 3.9 26 10.5 SW 19 33 10 18 1010.4 1006.8 0.0
17/08:00am 23.6 18.1 4.0 28 9.8 SW 22 32 12 17 1010.2 1006.6 0.0
17/07:30am 23.5 18.7 4.9 30 9.5 SW 19 33 10 18 1009.9 1006.3 0.0
17/07:00am 22.8 18.2 5.7 33 8.8 SSW 19 28 10 15 1009.9 1006.3 0.0
17/06:30am 22.2 18.1 6.4 36 8.2 SW 17 26 9 14 1009.7 1006.1 0.0
17/06:00am 21.4 18.1 6.5 38 7.7 SW 13 20 7 11 1009.2 1005.6 0.0
17/05:30am 20.9 17.3 6.8 40 7.3 SW 15 24 8 13 1008.7 1005.0 0.0
17/05:00am 20.9 18.1 6.8 40 7.3 SW 11 20 6 11 1008.1 1004.5 0.0
17/04:30am 20.6 18.2 6.9 41 7.1 SW 9 19 5 10 1007.7 1004.1 0.0
17/04:00am 21.1 18.5 6.2 38 7.7 SW 9 13 5 7 1007.2 1003.6 0.0
17/03:30am 21.1 18.8 5.5 36 7.9 SW 7 13 4 7 1007.0 1003.4 0.0
17/03:00am 22.0 19.3 5.8 35 8.3 SW 9 13 5 7 1006.7 1003.0 0.0
17/02:30am 22.0 19.8 5.4 34 8.5 SSW 6 9 3 5 1006.5 1002.8 0.0
17/02:00am 22.3 19.5 5.3 33 8.7 WSW 9 9 5 5 1006.4 1002.7 0.0
17/01:30am 22.6 20.0 4.2 30 9.2 WSW 7 9 4 5 1006.3 1002.6 0.0
17/01:00am 23.4 20.9 3.9 28 9.8 SW 6 7 3 4 1006.3 1002.6 0.0
17/12:30am 24.2 21.2 4.0 27 10.2 WSW 9 13 5 7 1006.3 1002.6 0.0
17/12:00am 25.3 22.5 3.3 24 11.1 WSW 7 9 4 5 1006.5 1002.8 0.0
 
Date/Time
WST
Temp
°C
App
Temp
°C
Dew
Point
°C
Rel
Hum
%
Delta-T
°C
Wind Press
QNH
hPa
Press
MSL
hPa
Rain since
9am
mm
Dir  Spd
km/h
Gust
km/h
Spd
kts
Gust
kts
16/11:30pm 26.1 23.8 2.7 22 11.7 SW 4 6 2 3 1006.7 1003.0 0.0
16/11:00pm 27.3 24.0 2.4 20 12.5 WSW 9 15 5 8 1006.6 1002.9 0.0
16/10:30pm 27.8 24.3 1.3 18 13.0 W 9 17 5 9 1006.3 1002.6 0.0
16/10:00pm 28.9 24.3 1.4 17 13.7 WSW 15 20 8 11 1006.1 1002.4 0.0
16/09:30pm 29.6 24.6 1.1 16 14.1 WSW 17 30 9 16 1005.7 1002.1 0.0
16/09:00pm 30.4 25.5 1.8 16 14.5 WSW 17 26 9 14 1005.3 1001.7 0.0
16/08:30pm 31.1 26.6 2.3 16 14.7 WSW 15 26 8 14 1005.0 1001.4 0.0
16/08:00pm 32.1 26.5 1.3 14 15.6 SW 20 32 11 17 1004.6 1000.9 0.0
16/07:30pm 33.6 28.5 -2.2 10 17.2 W 15 24 8 13 1003.9 1000.2 0.0
16/07:00pm 34.6 29.2 -1.4 10 17.8 W 17 30 9 16 1003.4 999.8 0.0
16/06:30pm 35.5 29.2 -0.8 10 18.1 WNW 22 32 12 17 1003.0 999.4 0.0
16/06:00pm 36.4 29.6 -1.5 9 18.9 W 24 39 13 21 1002.7 999.1 0.0
16/05:30pm 37.2 30.7 0.5 10 18.9 W 24 37 13 20 1002.4 998.7 0.0
16/05:00pm 37.7 30.5 0.9 10 19.2 WNW 28 44 15 24 1002.2 998.5 0.0
16/04:30pm 38.1 31.9 -0.3 9 19.6 WNW 22 35 12 19 1002.1 998.4 0.0
16/04:00pm 38.5 31.2 0.0 9 19.9 WNW 28 44 15 24 1002.2 998.5 0.0
16/03:30pm 39.2 32.0 0.6 9 20.1 WNW 28 44 15 24 1002.3 998.6 0.0
16/03:02pm 38.2 30.9 -0.2 9 19.7 WNW 28 46 15 25 1002.5 998.8 0.0
16/03:00pm 38.6 30.9 0.1 9 19.9 NW 30 46 16 25 1002.5 998.8 0.0
16/02:30pm 38.9 30.9 0.3 9 20.0 NW 32 43 17 23 1002.8 999.2 0.0
16/02:11pm 38.9 31.6 0.3 9 20.0 NW 28 48 15 26 1003.0 999.4 0.0
16/02:00pm 38.3 30.6 -0.1 9 19.8 NNW 30 44 16 24 1003.0 999.4 0.0
16/01:30pm 38.3 31.2 1.3 10 19.4 NW 28 41 15 22 1003.7 1000.0 0.0

Other Formats:

Comma delimited format used in spreadsheet applications
http://www.bom.gov.au/fwo/IDW60801/IDW60801.99737.axf

JavaScript Object Notation format (JSON) in row-major order
http://www.bom.gov.au/fwo/IDW60801/IDW60801.99737.json